ノーフォーク島空港の過去48時間の天気

ノーフォーク島空港 (Norfolk Island Airport)

現在時刻: 9/26 08:20 +11 (9/25 21:20 UTC) 以下の時間は現地時間です。

過去48時間のMETAR気象情報
時間 風向 風速(m/s) 視程 気温(℃) 湿度(%) 気圧(hPa) 天気現象
26 08:06 北東 6 10km以上 19 83 1016
26 07:30 北東 6 10km以上 19 83 1016
26 07:00 北東 8 10km以上 19 83 1016
26 06:56 北東 8 10km以上 18 88 1016
26 06:30 北東 7 10km以上 18 88 1016
26 06:00 北東 7 10km以上 18 88 1016
26 05:30 北北東 6 10km以上 18 88 1016
26 05:00 北東 6 10km以上 18 88 1015
26 04:30 北東 6 10km以上 18 88 1015
26 04:00 北東 5 10km以上 18 88 1015
26 03:30 北東 6 10km以上 18 88 1015
26 03:00 北北東 5 10km以上 18 88 1016
26 02:45 北東 6 10km以上 18 88 1016
26 02:30 北東 5 10km以上 18 88 1016
26 02:00 北東 8 10km以上 18 88 1015
26 01:30 北東 6 10km以上 18 88 1016
26 01:23 北東 7 10km以上 18 88 1016
26 01:00 北東 6 10km以上 18 88 1016
26 00:30 北東 7 10km以上 18 88 1016
26 00:00 北東 6 10km以上 18 88 1017
25 23:30 北東 6 10km以上 18 88 1017
25 23:00 北東 5 10km以上 18 88 1017
25 22:30 北東 5 10km以上 18 83 1017
25 22:00 北東 5 10km以上 17 88 1017
25 21:34 東北東 5 10km以上 17 88 1017
25 21:00 東北東 7 10km以上 17 88 1017
25 20:30 東北東 6 10km以上 17 83 1017
25 20:00 北東 7 10km以上 17 83 1017
25 19:30 東北東 5 10km以上 17 83 1017
25 19:00 北東 6 10km以上 18 73 1017
25 18:30 北東 5 10km以上 17 77 1017
25 18:00 北東 7 10km以上 17 77 1016
25 17:30 北東 5 10km以上 18 73 1016
25 17:00 北東 6 10km以上 18 73 1016
25 16:30 北東 6 10km以上 18 73 1016
25 16:00 北東 7 10km以上 18 68 1016
25 15:30 北東 8 10km以上 18 68 1015
25 15:00 北東 8 10km以上 18 68 1016
25 14:30 北東 7 10km以上 19 68 1016
25 14:00 北東 7 10km以上 19 73 1017
25 13:30 北東 8 10km以上 19 68 1017
25 13:00 北東 8 10km以上 19 64 1017
25 12:30 北東 8 10km以上 19 73 1017
25 12:00 北東 8 10km以上 19 68 1017
25 11:30 北東 7 10km以上 20 68 1018
25 11:00 北東 7 10km以上 19 73 1018
25 10:00 北東 7 10km以上 19 73 1018
25 09:30 東北東 8 10km以上 19 68 1018
25 09:00 北東 7 10km以上 19 73 1018
25 08:30 北東 7 10km以上 19 68 1018
25 08:00 東北東 7 10km以上 18 68 1018
25 07:30 東北東 7 10km以上 18 68 1018
25 07:00 東北東 5 10km以上 17 77 1018
25 06:30 東北東 5 10km以上 17 77 1018
25 06:00 東北東 5 10km以上 16 77 1018
25 05:30 東北東 4 10km以上 15 82 1018
25 05:00 東北東 4 10km以上 15 82 1018
25 04:30 東北東 4 10km以上 15 77 1018
25 04:00 北東 5 10km以上 16 77 1018
25 03:30 北東 4 10km以上 16 72 1018
25 03:00 北東 5 10km以上 16 72 1018
25 02:30 東北東 5 10km以上 16 77 1018
25 02:00 北東 6 10km以上 16 72 1018
25 01:30 北東 5 10km以上 16 77 1018
25 01:00 北東 5 10km以上 16 72 1018
25 00:30 北東 5 10km以上 16 72 1018
25 00:00 東北東 4 10km以上 15 77 1019
24 23:30 東北東 4 10km以上 15 77 1019
24 23:00 東北東 4 10km以上 16 77 1019
24 22:30 東北東 5 10km以上 16 72 1019
24 22:00 東北東 5 10km以上 16 72 1019
24 21:30 東北東 4 10km以上 15 77 1019
24 21:00 東北東 5 10km以上 16 72 1019
24 20:30 東北東 5 10km以上 15 77 1019
24 20:00 東北東 5 10km以上 15 77 1018
24 19:30 東北東 5 10km以上 16 72 1018
24 19:00 北東 5 10km以上 16 68 1018
24 18:30 北東 5 10km以上 16 72 1018
24 18:00 北東 5 10km以上 16 68 1018
24 17:30 東北東 4 10km以上 16 72 1018
24 17:00 北東 6 10km以上 17 63 1017
24 16:30 北東 5 10km以上 17 63 1017
24 16:00 北東 6 10km以上 18 60 1017
24 15:30 東北東 6 10km以上 18 60 1017
24 15:00 北東 5 10km以上 18 60 1017
24 14:30 北東 6 10km以上 18 60 1017
24 14:00 北東 6 10km以上 18 56 1017
24 13:30 北東 6 10km以上 19 56 1018
24 13:00 北東 6 10km以上 18 60 1018
24 12:30 東北東 6 10km以上 19 60 1018
24 12:00 東北東 6 10km以上 19 60 1019
24 11:30 北東 6 10km以上 18 60 1019
24 11:00 北東 6 10km以上 18 56 1019
24 10:30 北東 5 10km以上 18 64 1020
24 09:30 北東 5 10km以上 19 56 1020
24 09:00 北東 4 10km以上 18 60 1020
24 08:30 北東 4 10km以上 18 56 1020
YSNF 252106Z AUTO 04012KT 9999 // BKN013 19/16 Q1016 RF00/0/000/0
YSNF 252030Z AUTO 04012KT 9999 // BKN012 19/16 Q1016 RF00.0/000.0
YSNF 252000Z AUTO 05016KT 9999 // SCT013 19/16 Q1016 RF00.0/000.0
YSNF 251956Z AUTO 05015KT 9999 // SCT013 18/16 Q1016 RF00/0/000/0
YSNF 251930Z AUTO 05013KT 9999 // BKN013 BKN020 BKN110 18/16 Q1016
YSNF 251900Z AUTO 04013KT 9999 // BKN011 OVC020 18/16 Q1016
YSNF 251830Z AUTO 03011KT 9999 // BKN011 BKN016 18/16 Q1016
YSNF 251800Z AUTO 04012KT 9999 // BKN013 BKN020 18/16 Q1015
YSNF 251730Z AUTO 04011KT 9999 // BKN013 OVC019 18/16 Q1015
YSNF 251700Z AUTO 04009KT 9999 // BKN013 BKN018 OVC022 18/16 Q1015
YSNF 251630Z AUTO 04011KT 9999 // BKN013 OVC022 18/16 Q1015
YSNF 251600Z AUTO 03010KT 9999 // BKN013 OVC022 18/16 Q1016
YSNF 251545Z AUTO 04011KT 9999 // BKN013 OVC022 18/16 Q1016
YSNF 251530Z AUTO 04010KT 9999 // SCT013 BKN022 18/16 Q1016
YSNF 251500Z AUTO 05015KT 9999 // SCT013 BKN020 BKN115 18/16 Q1015
YSNF 251430Z AUTO 04012KT 9999 // SCT013 OVC018 18/16 Q1016
YSNF 251423Z AUTO 04013KT 9999 // SCT013 BKN018 18/16 Q1016
YSNF 251400Z AUTO 04011KT 9999 // BKN016 18/16 Q1016 RF00/0/000/0
YSNF 251330Z AUTO 04013KT 9999 // BKN012 BKN018 18/16 Q1016
YSNF 251300Z AUTO 04011KT 9999 // BKN012 18/16 Q1017 RF00.0/000.0
YSNF 251230Z AUTO 05011KT 9999 // BKN012 18/16 Q1017 RF00.0/000.0
YSNF 251200Z AUTO 05010KT 9999 // OVC014 18/16 Q1017 RF00.0/000.0
YSNF 251130Z AUTO 05009KT 9999 // BKN016 18/15 Q1017 RF00/0/000/0
YSNF 251100Z AUTO 05009KT 9999 // BKN016 17/15 Q1017 RF00.0/000.0
YSNF 251034Z AUTO 06010KT 9999 // BKN016 17/15 Q1017 RF00/0/000/0
YSNF 251000Z AUTO 06013KT 9999 // BKN018 17/15 Q1017 RF00.0/000.0
YSNF 250930Z AUTO 06011KT 9999 // SCT018 17/14 Q1017 RF00.0/000.0
YSNF 250900Z AUTO 05013KT 9999 // SCT020 17/14 Q1017 RF00.0/000.0
YSNF 250830Z AUTO 06010KT 9999 // SCT020 17/14 Q1017 RF00.0/000.0
YSNF 250800Z AUTO 04011KT 9999 // NCD 18/13 Q1017 RF00.0/000.0
YSNF 250730Z AUTO 04010KT 9999 // NCD 17/13 Q1017 RF00.0/000.0
YSNF 250700Z AUTO 05013KT 9999 // SCT020 17/13 Q1016 RF00.0/000.0
YSNF 250630Z AUTO 05009KT 9999 // NCD 18/13 Q1016 RF00.0/000.0
YSNF 250600Z AUTO 05011KT 9999 // NCD 18/13 Q1016 RF00.0/000.0
YSNF 250530Z AUTO 05011KT 9999 // NCD 18/13 Q1016 RF00.0/000.0
YSNF 250500Z AUTO 05013KT 9999 // NCD 18/12 Q1016 RF00.0/000.0
YSNF 250430Z AUTO 05015KT 9999 // NCD 18/12 Q1015 RF00.0/000.0
YSNF 250400Z AUTO 05015KT 9999 // NCD 18/12 Q1016 RF00.0/000.0
YSNF 250330Z AUTO 05014KT 9999 // NCD 19/13 Q1016 RF00.0/000.0
YSNF 250300Z AUTO 05014KT 9999 // NCD 19/14 Q1017 RF00.0/000.0
YSNF 250230Z AUTO 05015KT 9999 // NCD 19/13 Q1017 RF00.0/000.0
YSNF 250200Z AUTO 05016KT 9999 // NCD 19/12 Q1017 RF00.0/000.0
YSNF 250130Z AUTO 05015KT 9999 // NCD 19/14 Q1017 RF00.0/000.0
YSNF 250100Z AUTO 04015KT 9999 // NCD 19/13 Q1017 RF00.0/000.0
YSNF 250030Z AUTO 05014KT 9999 // SCT021 20/14 Q1018 RF00.0/000.0
YSNF 250000Z AUTO 04014KT 9999 // NCD 19/14 Q1018 RF00.0/000.0
YSNF 242300Z AUTO 05013KT 9999 // NCD 19/14 Q1018 RF00.0/000.0
YSNF 242230Z AUTO 06015KT 9999 // NCD 19/13 Q1018 RF00.0/000.0
YSNF 242200Z AUTO 05013KT 9999 // NCD 19/14 Q1018 RF00.0/000.0
YSNF 242130Z AUTO 05013KT 9999 // SCT022 19/13 Q1018 RF00.0/000.0
YSNF 242100Z AUTO 06013KT 9999 // SCT028 18/12 Q1018 RF00.0/000.0
YSNF 242030Z AUTO 06013KT 9999 // SCT023 18/12 Q1018 RF00.0/000.0
YSNF 242000Z AUTO 06010KT 9999 // SCT021 17/13 Q1018 RF00.0/000.0
YSNF 241930Z AUTO 06009KT 9999 // BKN046 17/13 Q1018 RF00.0/000.0
YSNF 241900Z AUTO 06009KT 9999 // NCD 16/12 Q1018 RF00.0/000.0
YSNF 241830Z AUTO 06008KT 9999 // NCD 15/12 Q1018 RF00.0/000.0
YSNF 241800Z AUTO 07008KT 9999 // NCD 15/12 Q1018 RF00.0/000.0
YSNF 241730Z AUTO 06008KT 9999 // SCT041 15/11 Q1018 RF00.0/000.0
YSNF 241700Z AUTO 05009KT 9999 // SCT045 16/12 Q1018 RF00.0/000.0
YSNF 241630Z AUTO 05007KT 9999 // BKN047 16/11 Q1018 RF00.0/000.0
YSNF 241600Z AUTO 05009KT 9999 // NCD 16/11 Q1018 RF00.0/000.0
YSNF 241530Z AUTO 06009KT 9999 // NCD 16/12 Q1018 RF00.0/000.0
YSNF 241500Z AUTO 05011KT 9999 // SCT047 16/11 Q1018 RF00.0/000.0
YSNF 241430Z AUTO 05010KT 9999 // SCT025 BKN047 16/12 Q1018
YSNF 241400Z AUTO 05009KT 9999 // SCT047 16/11 Q1018 RF00.0/000.0
YSNF 241330Z AUTO 05009KT 9999 // SCT040 16/11 Q1018 RF00.0/000.0
YSNF 241300Z AUTO 06008KT 9999 // SCT042 15/11 Q1019 RF00.0/000.0
YSNF 241230Z AUTO 06008KT 9999 // BKN042 15/11 Q1019 RF00.0/000.0
YSNF 241200Z AUTO 06008KT 9999 // SCT042 16/12 Q1019 RF00.0/000.0
YSNF 241130Z AUTO 06009KT 9999 // NCD 16/11 Q1019 RF00.0/000.0
YSNF 241100Z AUTO 06009KT 9999 // NCD 16/11 Q1019 RF00.0/000.0
YSNF 241030Z AUTO 06008KT 9999 // NCD 15/11 Q1019 RF00.0/000.0
YSNF 241000Z AUTO 06009KT 9999 // NCD 16/11 Q1019 RF00.0/000.0
YSNF 240930Z AUTO 06009KT 9999 // NCD 15/11 Q1019 RF00.0/000.0
YSNF 240900Z AUTO 06009KT 9999 // NCD 15/11 Q1018 RF00.0/000.0
YSNF 240830Z AUTO 06010KT 9999 // NCD 16/11 Q1018 RF00.0/000.0
YSNF 240800Z AUTO 05009KT 9999 // NCD 16/10 Q1018 RF00.0/000.0
YSNF 240730Z AUTO 05009KT 9999 // NCD 16/11 Q1018 RF00.0/000.0
YSNF 240700Z AUTO 05009KT 9999 // NCD 16/10 Q1018 RF00.0/000.0
YSNF 240630Z AUTO 06008KT 9999 // NCD 16/11 Q1018 RF00.0/000.0
YSNF 240600Z AUTO 05011KT 9999 // NCD 17/10 Q1017 RF00.0/000.0
YSNF 240530Z AUTO 05010KT 9999 // NCD 17/10 Q1017 RF00.0/000.0
YSNF 240500Z AUTO 05011KT 9999 // NCD 18/10 Q1017 RF00.0/000.0
YSNF 240430Z AUTO 06012KT 9999 // NCD 18/10 Q1017 RF00.0/000.0
YSNF 240400Z AUTO 05010KT 9999 // NCD 18/10 Q1017 RF00.0/000.0
YSNF 240330Z AUTO 05011KT 9999 // NCD 18/10 Q1017 RF00.0/000.0
YSNF 240300Z AUTO 05012KT 9999 // NCD 18/09 Q1017 RF00.0/000.0
YSNF 240230Z AUTO 05012KT 9999 // NCD 19/10 Q1018 RF00.0/000.0
YSNF 240200Z AUTO 04012KT 9999 // NCD 18/10 Q1018 RF00.0/000.0
YSNF 240130Z AUTO 06011KT 9999 // NCD 19/11 Q1018 RF00.0/000.0
YSNF 240100Z AUTO 06012KT 9999 // NCD 19/11 Q1019 RF00.0/000.0
YSNF 240030Z AUTO 04011KT 9999 // NCD 18/10 Q1019 RF00.0/000.0
YSNF 240000Z AUTO 04011KT 9999 // NCD 18/09 Q1019 RF00.0/000.0
YSNF 232330Z AUTO 04010KT 9999 // NCD 18/11 Q1020 RF00.0/000.0
YSNF 232230Z AUTO 05009KT 9999 // BKN045 19/10 Q1020 RF00.0/000.0
YSNF 232200Z AUTO 05008KT 9999 // SCT037 SCT044 18/10 Q1020
YSNF 232130Z AUTO 05007KT 9999 // BKN044 18/09 Q1020 RF00.0/000.0